sensor_id;sensor_type;location;lat;lon;timestamp;P1;durP1;ratioP1;P2;durP2;ratioP2
47239;SDS011;32978;53.586;10.052;2023-09-18T00:00:33;10.63;;;9.35;;
47239;SDS011;32978;53.586;10.052;2023-09-18T00:05:31;10.35;;;9.40;;
47239;SDS011;32978;53.586;10.052;2023-09-18T00:10:27;11.18;;;9.52;;
47239;SDS011;32978;53.586;10.052;2023-09-18T00:15:25;10.95;;;9.38;;
47239;SDS011;32978;53.586;10.052;2023-09-18T00:20:21;11.13;;;9.98;;
47239;SDS011;32978;53.586;10.052;2023-09-18T00:25:23;11.02;;;9.90;;
47239;SDS011;32978;53.586;10.052;2023-09-18T00:30:19;10.10;;;9.20;;
47239;SDS011;32978;53.586;10.052;2023-09-18T00:35:15;9.68;;;8.82;;
47239;SDS011;32978;53.586;10.052;2023-09-18T00:40:12;12.57;;;9.68;;
47239;SDS011;32978;53.586;10.052;2023-09-18T00:45:09;10.10;;;9.30;;
47239;SDS011;32978;53.586;10.052;2023-09-18T00:50:06;9.70;;;8.80;;
47239;SDS011;32978;53.586;10.052;2023-09-18T00:55:04;9.93;;;9.13;;
47239;SDS011;32978;53.586;10.052;2023-09-18T01:00:03;11.18;;;10.10;;
47239;SDS011;32978;53.586;10.052;2023-09-18T01:15:52;10.30;;;9.40;;
47239;SDS011;32978;53.586;10.052;2023-09-18T01:20:50;10.98;;;9.98;;
47239;SDS011;32978;53.586;10.052;2023-09-18T01:25:46;11.45;;;10.43;;
47239;SDS011;32978;53.586;10.052;2023-09-18T01:30:43;10.07;;;9.27;;
47239;SDS011;32978;53.586;10.052;2023-09-18T01:35:40;11.23;;;9.70;;
47239;SDS011;32978;53.586;10.052;2023-09-18T01:40:37;9.85;;;8.95;;
47239;SDS011;32978;53.586;10.052;2023-09-18T01:45:34;11.20;;;10.23;;
47239;SDS011;32978;53.586;10.052;2023-09-18T01:50:31;11.70;;;10.60;;
47239;SDS011;32978;53.586;10.052;2023-09-18T01:55:27;10.85;;;9.93;;
47239;SDS011;32978;53.586;10.052;2023-09-18T02:00:25;11.20;;;10.20;;
47239;SDS011;32978;53.586;10.052;2023-09-18T02:05:21;11.02;;;10.02;;
47239;SDS011;32978;53.586;10.052;2023-09-18T02:10:18;11.90;;;10.75;;
47239;SDS011;32978;53.586;10.052;2023-09-18T02:15:15;11.30;;;10.20;;
47239;SDS011;32978;53.586;10.052;2023-09-18T02:20:13;11.07;;;10.15;;
47239;SDS011;32978;53.586;10.052;2023-09-18T02:25:09;11.30;;;10.30;;
47239;SDS011;32978;53.586;10.052;2023-09-18T02:30:06;13.85;;;11.00;;
47239;SDS011;32978;53.586;10.052;2023-09-18T02:35:02;11.90;;;10.80;;
47239;SDS011;32978;53.586;10.052;2023-09-18T02:40:00;11.88;;;10.80;;
47239;SDS011;32978;53.586;10.052;2023-09-18T02:44:56;11.48;;;10.27;;
47239;SDS011;32978;53.586;10.052;2023-09-18T02:49:53;11.27;;;10.38;;
47239;SDS011;32978;53.586;10.052;2023-09-18T02:54:49;11.68;;;10.57;;
47239;SDS011;32978;53.586;10.052;2023-09-18T02:59:45;15.00;;;10.38;;
47239;SDS011;32978;53.586;10.052;2023-09-18T03:04:42;12.10;;;11.05;;
47239;SDS011;32978;53.586;10.052;2023-09-18T03:09:38;11.45;;;10.45;;
47239;SDS011;32978;53.586;10.052;2023-09-18T03:14:34;11.77;;;10.73;;
47239;SDS011;32978;53.586;10.052;2023-09-18T03:19:31;11.82;;;10.93;;
47239;SDS011;32978;53.586;10.052;2023-09-18T03:24:27;11.65;;;10.65;;
47239;SDS011;32978;53.586;10.052;2023-09-18T03:29:23;11.20;;;10.30;;
47239;SDS011;32978;53.586;10.052;2023-09-18T03:34:20;13.07;;;11.88;;
47239;SDS011;32978;53.586;10.052;2023-09-18T03:39:16;12.80;;;11.70;;
47239;SDS011;32978;53.586;10.052;2023-09-18T03:44:13;12.88;;;11.77;;
47239;SDS011;32978;53.586;10.052;2023-09-18T03:49:09;12.85;;;11.57;;
47239;SDS011;32978;53.586;10.052;2023-09-18T03:54:05;14.35;;;13.15;;
47239;SDS011;32978;53.586;10.052;2023-09-18T03:59:02;13.25;;;12.07;;
47239;SDS011;32978;53.586;10.052;2023-09-18T04:03:58;12.85;;;11.75;;
47239;SDS011;32978;53.586;10.052;2023-09-18T04:08:55;12.70;;;11.50;;
47239;SDS011;32978;53.586;10.052;2023-09-18T04:13:51;13.15;;;11.90;;
47239;SDS011;32978;53.586;10.052;2023-09-18T04:18:48;13.07;;;12.02;;
47239;SDS011;32978;53.586;10.052;2023-09-18T04:23:45;13.27;;;12.00;;
47239;SDS011;32978;53.586;10.052;2023-09-18T04:28:42;14.38;;;13.18;;
47239;SDS011;32978;53.586;10.052;2023-09-18T04:33:38;14.65;;;13.30;;
47239;SDS011;32978;53.586;10.052;2023-09-18T04:38:35;15.80;;;14.13;;
47239;SDS011;32978;53.586;10.052;2023-09-18T04:43:31;13.07;;;12.02;;
47239;SDS011;32978;53.586;10.052;2023-09-18T04:48:28;13.70;;;12.52;;
47239;SDS011;32978;53.586;10.052;2023-09-18T04:53:24;14.02;;;12.63;;
47239;SDS011;32978;53.586;10.052;2023-09-18T04:58:21;16.05;;;14.45;;
47239;SDS011;32978;53.586;10.052;2023-09-18T05:03:18;15.00;;;13.80;;
47239;SDS011;32978;53.586;10.052;2023-09-18T05:08:15;14.75;;;13.35;;
47239;SDS011;32978;53.586;10.052;2023-09-18T05:13:11;16.05;;;14.57;;
47239;SDS011;32978;53.586;10.052;2023-09-18T05:18:08;14.63;;;13.32;;
47239;SDS011;32978;53.586;10.052;2023-09-18T05:23:04;15.20;;;13.98;;
47239;SDS011;32978;53.586;10.052;2023-09-18T05:28:01;13.85;;;12.65;;
47239;SDS011;32978;53.586;10.052;2023-09-18T05:32:57;15.38;;;14.00;;
47239;SDS011;32978;53.586;10.052;2023-09-18T05:38:01;14.95;;;13.60;;
47239;SDS011;32978;53.586;10.052;2023-09-18T05:42:57;15.98;;;14.55;;
47239;SDS011;32978;53.586;10.052;2023-09-18T05:47:53;15.05;;;13.77;;
47239;SDS011;32978;53.586;10.052;2023-09-18T05:52:53;13.90;;;12.70;;
47239;SDS011;32978;53.586;10.052;2023-09-18T06:03:56;14.65;;;13.40;;
47239;SDS011;32978;53.586;10.052;2023-09-18T06:09:11;14.02;;;12.60;;
47239;SDS011;32978;53.586;10.052;2023-09-18T06:14:17;13.15;;;11.95;;
47239;SDS011;32978;53.586;10.052;2023-09-18T06:19:19;14.13;;;12.88;;
47239;SDS011;32978;53.586;10.052;2023-09-18T06:25:07;15.38;;;12.15;;
47239;SDS011;32978;53.586;10.052;2023-09-18T06:30:47;14.30;;;12.88;;
47239;SDS011;32978;53.586;10.052;2023-09-18T06:35:46;13.82;;;12.43;;
47239;SDS011;32978;53.586;10.052;2023-09-18T06:46:51;14.25;;;12.90;;
47239;SDS011;32978;53.586;10.052;2023-09-18T06:58:35;13.85;;;12.50;;
47239;SDS011;32978;53.586;10.052;2023-09-18T07:03:32;18.50;;;14.38;;
47239;SDS011;32978;53.586;10.052;2023-09-18T07:08:52;13.20;;;11.93;;
47239;SDS011;32978;53.586;10.052;2023-09-18T07:14:06;13.15;;;12.05;;
47239;SDS011;32978;53.586;10.052;2023-09-18T07:19:23;12.23;;;11.02;;
47239;SDS011;32978;53.586;10.052;2023-09-18T07:24:36;15.48;;;14.13;;
47239;SDS011;32978;53.586;10.052;2023-09-18T07:34:55;13.13;;;11.95;;
47239;SDS011;32978;53.586;10.052;2023-09-18T07:40:01;12.63;;;11.57;;
47239;SDS011;32978;53.586;10.052;2023-09-18T07:57:10;13.13;;;11.93;;
47239;SDS011;32978;53.586;10.052;2023-09-18T08:02:06;13.35;;;12.18;;
47239;SDS011;32978;53.586;10.052;2023-09-18T08:07:03;13.10;;;12.00;;
47239;SDS011;32978;53.586;10.052;2023-09-18T08:12:03;12.80;;;11.77;;
47239;SDS011;32978;53.586;10.052;2023-09-18T08:17:00;12.95;;;11.90;;
47239;SDS011;32978;53.586;10.052;2023-09-18T08:21:56;12.77;;;11.73;;
47239;SDS011;32978;53.586;10.052;2023-09-18T08:26:53;12.68;;;11.57;;
47239;SDS011;32978;53.586;10.052;2023-09-18T08:31:50;13.00;;;11.80;;
47239;SDS011;32978;53.586;10.052;2023-09-18T08:36:47;12.85;;;11.75;;
47239;SDS011;32978;53.586;10.052;2023-09-18T08:41:43;13.55;;;12.35;;
47239;SDS011;32978;53.586;10.052;2023-09-18T08:46:41;12.73;;;11.75;;
47239;SDS011;32978;53.586;10.052;2023-09-18T08:51:39;12.73;;;11.60;;
47239;SDS011;32978;53.586;10.052;2023-09-18T08:56:38;13.20;;;12.00;;
47239;SDS011;32978;53.586;10.052;2023-09-18T09:01:34;13.07;;;11.82;;
47239;SDS011;32978;53.586;10.052;2023-09-18T09:06:31;13.98;;;12.23;;
47239;SDS011;32978;53.586;10.052;2023-09-18T09:11:27;12.93;;;11.82;;
47239;SDS011;32978;53.586;10.052;2023-09-18T09:16:23;13.23;;;11.90;;
47239;SDS011;32978;53.586;10.052;2023-09-18T09:21:20;12.45;;;11.25;;
47239;SDS011;32978;53.586;10.052;2023-09-18T09:26:17;13.30;;;12.20;;
47239;SDS011;32978;53.586;10.052;2023-09-18T09:31:24;12.70;;;11.65;;
47239;SDS011;32978;53.586;10.052;2023-09-18T09:36:21;12.85;;;11.73;;
47239;SDS011;32978;53.586;10.052;2023-09-18T09:41:17;11.95;;;10.95;;
47239;SDS011;32978;53.586;10.052;2023-09-18T09:46:17;12.63;;;11.63;;
47239;SDS011;32978;53.586;10.052;2023-09-18T09:51:17;13.35;;;12.05;;
47239;SDS011;32978;53.586;10.052;2023-09-18T09:56:14;12.80;;;11.68;;
47239;SDS011;32978;53.586;10.052;2023-09-18T10:01:11;13.85;;;12.77;;
47239;SDS011;32978;53.586;10.052;2023-09-18T10:06:10;13.30;;;12.10;;
47239;SDS011;32978;53.586;10.052;2023-09-18T10:11:09;12.38;;;11.35;;
47239;SDS011;32978;53.586;10.052;2023-09-18T10:16:08;12.90;;;11.70;;
47239;SDS011;32978;53.586;10.052;2023-09-18T10:21:10;13.65;;;12.32;;
47239;SDS011;32978;53.586;10.052;2023-09-18T10:26:10;14.70;;;13.23;;
47239;SDS011;32978;53.586;10.052;2023-09-18T10:31:09;14.70;;;11.80;;
47239;SDS011;32978;53.586;10.052;2023-09-18T10:36:07;12.88;;;11.57;;
47239;SDS011;32978;53.586;10.052;2023-09-18T10:41:04;12.60;;;11.50;;
47239;SDS011;32978;53.586;10.052;2023-09-18T10:46:01;13.65;;;12.48;;
47239;SDS011;32978;53.586;10.052;2023-09-18T10:50:57;14.30;;;13.07;;
47239;SDS011;32978;53.586;10.052;2023-09-18T10:55:55;14.02;;;12.68;;
47239;SDS011;32978;53.586;10.052;2023-09-18T11:00:53;14.18;;;12.68;;
47239;SDS011;32978;53.586;10.052;2023-09-18T11:06:02;13.10;;;11.90;;
47239;SDS011;32978;53.586;10.052;2023-09-18T11:11:02;12.73;;;11.63;;
47239;SDS011;32978;53.586;10.052;2023-09-18T11:21:24;13.32;;;11.95;;
47239;SDS011;32978;53.586;10.052;2023-09-18T11:26:21;20.15;;;12.52;;
47239;SDS011;32978;53.586;10.052;2023-09-18T11:31:17;11.98;;;10.88;;
47239;SDS011;32978;53.586;10.052;2023-09-18T11:36:28;14.45;;;11.93;;
47239;SDS011;32978;53.586;10.052;2023-09-18T11:41:27;12.40;;;11.40;;
47239;SDS011;32978;53.586;10.052;2023-09-18T11:46:24;12.70;;;11.07;;
47239;SDS011;32978;53.586;10.052;2023-09-18T11:51:22;12.25;;;11.10;;
47239;SDS011;32978;53.586;10.052;2023-09-18T11:56:18;13.90;;;10.70;;
47239;SDS011;32978;53.586;10.052;2023-09-18T12:01:21;12.32;;;11.15;;
47239;SDS011;32978;53.586;10.052;2023-09-18T12:06:54;12.85;;;11.52;;
47239;SDS011;32978;53.586;10.052;2023-09-18T12:12:43;12.67;;;11.40;;
47239;SDS011;32978;53.586;10.052;2023-09-18T12:17:47;12.63;;;11.43;;
47239;SDS011;32978;53.586;10.052;2023-09-18T12:22:46;15.32;;;10.52;;
47239;SDS011;32978;53.586;10.052;2023-09-18T12:27:44;12.70;;;10.77;;
47239;SDS011;32978;53.586;10.052;2023-09-18T12:32:41;13.13;;;11.52;;
47239;SDS011;32978;53.586;10.052;2023-09-18T12:37:41;11.98;;;10.88;;
47239;SDS011;32978;53.586;10.052;2023-09-18T12:42:38;15.05;;;11.13;;
47239;SDS011;32978;53.586;10.052;2023-09-18T12:47:36;12.10;;;10.90;;
47239;SDS011;32978;53.586;10.052;2023-09-18T12:52:35;13.43;;;10.00;;
47239;SDS011;32978;53.586;10.052;2023-09-18T12:57:32;13.60;;;12.13;;
47239;SDS011;32978;53.586;10.052;2023-09-18T13:02:29;11.90;;;10.32;;
47239;SDS011;32978;53.586;10.052;2023-09-18T13:07:26;13.02;;;10.02;;
47239;SDS011;32978;53.586;10.052;2023-09-18T13:12:23;14.15;;;10.40;;
47239;SDS011;32978;53.586;10.052;2023-09-18T13:17:19;12.95;;;9.93;;
47239;SDS011;32978;53.586;10.052;2023-09-18T13:22:25;11.55;;;9.70;;
47239;SDS011;32978;53.586;10.052;2023-09-18T13:27:22;11.40;;;9.15;;
47239;SDS011;32978;53.586;10.052;2023-09-18T13:32:20;10.90;;;9.73;;
47239;SDS011;32978;53.586;10.052;2023-09-18T13:37:16;14.07;;;9.65;;
47239;SDS011;32978;53.586;10.052;2023-09-18T13:42:14;11.15;;;10.05;;
47239;SDS011;32978;53.586;10.052;2023-09-18T13:47:11;10.23;;;9.38;;
47239;SDS011;32978;53.586;10.052;2023-09-18T13:52:09;10.57;;;9.52;;
47239;SDS011;32978;53.586;10.052;2023-09-18T13:57:06;9.73;;;8.75;;
47239;SDS011;32978;53.586;10.052;2023-09-18T14:02:02;10.45;;;8.90;;
47239;SDS011;32978;53.586;10.052;2023-09-18T14:07:01;12.00;;;9.38;;
47239;SDS011;32978;53.586;10.052;2023-09-18T14:11:58;10.15;;;9.15;;
47239;SDS011;32978;53.586;10.052;2023-09-18T14:16:54;13.65;;;9.43;;
47239;SDS011;32978;53.586;10.052;2023-09-18T14:21:54;10.18;;;9.13;;
47239;SDS011;32978;53.586;10.052;2023-09-18T14:26:51;10.38;;;9.48;;
47239;SDS011;32978;53.586;10.052;2023-09-18T14:31:48;10.05;;;9.05;;
47239;SDS011;32978;53.586;10.052;2023-09-18T14:36:44;9.40;;;8.32;;
47239;SDS011;32978;53.586;10.052;2023-09-18T14:41:44;13.32;;;8.38;;
47239;SDS011;32978;53.586;10.052;2023-09-18T14:46:41;10.35;;;9.27;;
47239;SDS011;32978;53.586;10.052;2023-09-18T14:51:39;13.05;;;9.40;;
47239;SDS011;32978;53.586;10.052;2023-09-18T14:56:37;10.32;;;9.32;;
47239;SDS011;32978;53.586;10.052;2023-09-18T15:01:33;9.75;;;8.95;;
47239;SDS011;32978;53.586;10.052;2023-09-18T15:06:30;9.55;;;8.68;;
47239;SDS011;32978;53.586;10.052;2023-09-18T15:11:27;10.27;;;8.68;;
47239;SDS011;32978;53.586;10.052;2023-09-18T15:16:23;14.68;;;8.98;;
47239;SDS011;32978;53.586;10.052;2023-09-18T15:21:19;9.70;;;8.70;;
47239;SDS011;32978;53.586;10.052;2023-09-18T15:26:16;9.30;;;8.50;;
47239;SDS011;32978;53.586;10.052;2023-09-18T15:31:13;10.10;;;9.10;;
47239;SDS011;32978;53.586;10.052;2023-09-18T15:36:10;9.95;;;9.02;;
47239;SDS011;32978;53.586;10.052;2023-09-18T15:41:06;9.82;;;9.02;;
47239;SDS011;32978;53.586;10.052;2023-09-18T15:46:04;9.32;;;8.57;;
47239;SDS011;32978;53.586;10.052;2023-09-18T15:51:00;9.43;;;8.63;;
47239;SDS011;32978;53.586;10.052;2023-09-18T15:55:56;9.68;;;8.75;;
47239;SDS011;32978;53.586;10.052;2023-09-18T16:00:53;9.98;;;8.98;;
47239;SDS011;32978;53.586;10.052;2023-09-18T16:05:50;9.95;;;8.70;;
47239;SDS011;32978;53.586;10.052;2023-09-18T16:10:49;9.20;;;8.30;;
47239;SDS011;32978;53.586;10.052;2023-09-18T16:15:46;9.95;;;8.65;;
47239;SDS011;32978;53.586;10.052;2023-09-18T16:20:42;9.75;;;8.85;;
47239;SDS011;32978;53.586;10.052;2023-09-18T16:25:38;13.60;;;8.73;;
47239;SDS011;32978;53.586;10.052;2023-09-18T16:30:35;9.55;;;8.68;;
47239;SDS011;32978;53.586;10.052;2023-09-18T16:35:31;9.63;;;8.75;;
47239;SDS011;32978;53.586;10.052;2023-09-18T16:40:27;9.80;;;8.95;;
47239;SDS011;32978;53.586;10.052;2023-09-18T16:45:29;13.50;;;8.82;;
47239;SDS011;32978;53.586;10.052;2023-09-18T16:50:26;10.88;;;9.63;;
47239;SDS011;32978;53.586;10.052;2023-09-18T16:55:22;9.85;;;9.00;;
47239;SDS011;32978;53.586;10.052;2023-09-18T17:00:30;9.70;;;8.90;;
47239;SDS011;32978;53.586;10.052;2023-09-18T17:05:50;9.55;;;8.85;;
47239;SDS011;32978;53.586;10.052;2023-09-18T17:10:46;9.90;;;9.10;;
47239;SDS011;32978;53.586;10.052;2023-09-18T17:15:43;9.90;;;9.00;;
47239;SDS011;32978;53.586;10.052;2023-09-18T17:20:40;10.30;;;9.40;;
47239;SDS011;32978;53.586;10.052;2023-09-18T17:25:36;10.43;;;9.52;;
47239;SDS011;32978;53.586;10.052;2023-09-18T17:30:32;9.48;;;8.68;;
47239;SDS011;32978;53.586;10.052;2023-09-18T17:35:29;9.20;;;8.40;;
47239;SDS011;32978;53.586;10.052;2023-09-18T17:40:26;10.50;;;8.50;;
47239;SDS011;32978;53.586;10.052;2023-09-18T17:45:22;9.80;;;8.55;;
47239;SDS011;32978;53.586;10.052;2023-09-18T17:50:19;9.40;;;8.57;;
47239;SDS011;32978;53.586;10.052;2023-09-18T17:55:15;11.82;;;8.90;;
47239;SDS011;32978;53.586;10.052;2023-09-18T18:00:12;9.20;;;8.30;;
47239;SDS011;32978;53.586;10.052;2023-09-18T18:05:12;8.32;;;7.63;;
47239;SDS011;32978;53.586;10.052;2023-09-18T18:10:08;9.38;;;8.43;;
47239;SDS011;32978;53.586;10.052;2023-09-18T18:15:05;8.82;;;8.02;;
47239;SDS011;32978;53.586;10.052;2023-09-18T18:20:03;9.07;;;8.18;;
47239;SDS011;32978;53.586;10.052;2023-09-18T18:25:01;7.90;;;7.20;;
47239;SDS011;32978;53.586;10.052;2023-09-18T18:29:58;8.35;;;7.55;;
47239;SDS011;32978;53.586;10.052;2023-09-18T18:34:55;8.57;;;7.28;;
47239;SDS011;32978;53.586;10.052;2023-09-18T18:39:51;8.35;;;7.65;;
47239;SDS011;32978;53.586;10.052;2023-09-18T18:44:48;8.45;;;7.45;;
47239;SDS011;32978;53.586;10.052;2023-09-18T18:49:44;7.97;;;7.22;;
47239;SDS011;32978;53.586;10.052;2023-09-18T18:54:41;11.32;;;7.50;;
47239;SDS011;32978;53.586;10.052;2023-09-18T18:59:37;8.02;;;7.32;;
47239;SDS011;32978;53.586;10.052;2023-09-18T19:04:36;10.02;;;8.18;;
47239;SDS011;32978;53.586;10.052;2023-09-18T19:09:32;9.18;;;7.97;;
47239;SDS011;32978;53.586;10.052;2023-09-18T19:14:28;8.82;;;7.95;;
47239;SDS011;32978;53.586;10.052;2023-09-18T19:19:25;7.80;;;7.20;;
47239;SDS011;32978;53.586;10.052;2023-09-18T19:24:21;8.07;;;7.38;;
47239;SDS011;32978;53.586;10.052;2023-09-18T19:29:17;8.68;;;7.55;;
47239;SDS011;32978;53.586;10.052;2023-09-18T19:34:14;13.52;;;7.88;;
47239;SDS011;32978;53.586;10.052;2023-09-18T19:39:12;8.40;;;7.60;;
47239;SDS011;32978;53.586;10.052;2023-09-18T19:44:08;8.50;;;7.70;;
47239;SDS011;32978;53.586;10.052;2023-09-18T19:49:05;8.45;;;7.75;;
47239;SDS011;32978;53.586;10.052;2023-09-18T19:54:01;10.10;;;8.55;;
47239;SDS011;32978;53.586;10.052;2023-09-18T19:58:58;8.68;;;7.97;;
47239;SDS011;32978;53.586;10.052;2023-09-18T20:03:54;7.88;;;6.97;;
47239;SDS011;32978;53.586;10.052;2023-09-18T20:08:51;7.88;;;7.28;;
47239;SDS011;32978;53.586;10.052;2023-09-18T20:13:47;9.10;;;7.60;;
47239;SDS011;32978;53.586;10.052;2023-09-18T20:18:44;7.78;;;7.07;;
47239;SDS011;32978;53.586;10.052;2023-09-18T20:23:40;7.60;;;6.88;;
47239;SDS011;32978;53.586;10.052;2023-09-18T20:28:38;8.68;;;6.78;;
47239;SDS011;32978;53.586;10.052;2023-09-18T20:33:35;7.20;;;5.35;;
47239;SDS011;32978;53.586;10.052;2023-09-18T20:38:31;6.78;;;6.07;;
47239;SDS011;32978;53.586;10.052;2023-09-18T20:43:28;6.40;;;5.43;;
47239;SDS011;32978;53.586;10.052;2023-09-18T20:48:25;5.85;;;5.45;;
47239;SDS011;32978;53.586;10.052;2023-09-18T20:53:22;5.20;;;4.70;;
47239;SDS011;32978;53.586;10.052;2023-09-18T20:58:18;6.40;;;5.80;;
47239;SDS011;32978;53.586;10.052;2023-09-18T21:03:15;6.03;;;4.57;;
47239;SDS011;32978;53.586;10.052;2023-09-18T21:08:12;5.50;;;5.00;;
47239;SDS011;32978;53.586;10.052;2023-09-18T21:13:09;5.20;;;4.70;;
47239;SDS011;32978;53.586;10.052;2023-09-18T21:18:05;5.68;;;5.18;;
47239;SDS011;32978;53.586;10.052;2023-09-18T21:23:03;5.85;;;4.90;;
47239;SDS011;32978;53.586;10.052;2023-09-18T21:27:59;6.20;;;5.57;;
47239;SDS011;32978;53.586;10.052;2023-09-18T21:32:57;7.32;;;6.78;;
47239;SDS011;32978;53.586;10.052;2023-09-18T21:37:53;7.22;;;6.63;;
47239;SDS011;32978;53.586;10.052;2023-09-18T21:42:52;8.73;;;7.22;;
47239;SDS011;32978;53.586;10.052;2023-09-18T21:47:48;7.68;;;6.97;;
47239;SDS011;32978;53.586;10.052;2023-09-18T21:52:46;7.35;;;6.75;;
47239;SDS011;32978;53.586;10.052;2023-09-18T21:57:43;6.32;;;5.82;;
47239;SDS011;32978;53.586;10.052;2023-09-18T22:02:39;6.35;;;5.85;;
47239;SDS011;32978;53.586;10.052;2023-09-18T22:07:36;6.85;;;6.07;;
47239;SDS011;32978;53.586;10.052;2023-09-18T22:12:32;7.22;;;6.55;;
47239;SDS011;32978;53.586;10.052;2023-09-18T22:17:29;7.07;;;6.57;;
47239;SDS011;32978;53.586;10.052;2023-09-18T22:22:27;6.80;;;6.30;;
47239;SDS011;32978;53.586;10.052;2023-09-18T22:27:25;6.78;;;6.28;;
47239;SDS011;32978;53.586;10.052;2023-09-18T22:32:22;6.70;;;6.20;;
47239;SDS011;32978;53.586;10.052;2023-09-18T22:37:19;5.95;;;5.53;;
47239;SDS011;32978;53.586;10.052;2023-09-18T22:57:47;6.70;;;5.25;;
47239;SDS011;32978;53.586;10.052;2023-09-18T23:02:43;5.63;;;5.13;;
47239;SDS011;32978;53.586;10.052;2023-09-18T23:07:41;8.80;;;5.05;;
47239;SDS011;32978;53.586;10.052;2023-09-18T23:12:39;5.82;;;4.97;;
47239;SDS011;32978;53.586;10.052;2023-09-18T23:17:41;5.25;;;4.78;;
47239;SDS011;32978;53.586;10.052;2023-09-18T23:22:38;5.32;;;4.93;;
47239;SDS011;32978;53.586;10.052;2023-09-18T23:27:43;6.38;;;5.18;;
47239;SDS011;32978;53.586;10.052;2023-09-18T23:32:40;9.65;;;5.10;;
47239;SDS011;32978;53.586;10.052;2023-09-18T23:37:39;8.15;;;5.07;;
47239;SDS011;32978;53.586;10.052;2023-09-18T23:42:37;7.55;;;5.80;;
47239;SDS011;32978;53.586;10.052;2023-09-18T23:47:36;5.75;;;5.25;;
47239;SDS011;32978;53.586;10.052;2023-09-18T23:52:33;8.30;;;4.72;;
47239;SDS011;32978;53.586;10.052;2023-09-18T23:57:30;6.28;;;5.65;;
